Time;durP1;ratioP1;P1;durP2;ratioP2;P2;SDS_P1;SDS_P2;PMS_P1;PMS_P2;Temp;Humidity;BMP_temperature;BMP_pressure;BME280_temperature;BME280_humidity;BME280_pressure;Samples;Min_cycle;Max_cycle;Signal;HPM_P1;HPM_P2
2022/11/30 00:00:11;;;;;;;24.73;12.25;;;;;;;9.99;100.00;100423.75;5032558;28;20043;-65
2022/11/30 00:02:36;;;;;;;27.05;12.88;;;;;;;9.95;100.00;100431.84;5032278;28;20100;-65
2022/11/30 00:05:02;;;;;;;28.33;13.65;;;;;;;9.96;100.00;100429.13;5032525;28;20025;-65
2022/11/30 00:07:27;;;;;;;29.45;11.98;;;;;;;9.96;100.00;100428.25;5032566;28;20026;-66
2022/11/30 00:09:52;;;;;;;25.90;12.95;;;;;;;9.93;100.00;100431.00;5032651;28;20029;-65
2022/11/30 00:12:18;;;;;;;22.38;10.70;;;;;;;9.89;100.00;100422.22;5031719;28;20033;-66
2022/11/30 00:14:43;;;;;;;23.23;11.10;;;;;;;9.83;100.00;100409.09;5032546;28;20133;-67
2022/11/30 00:17:09;;;;;;;28.77;12.77;;;;;;;9.92;100.00;100422.13;5032545;28;20026;-66
2022/11/30 00:19:34;;;;;;;25.88;12.35;;;;;;;9.85;100.00;100409.03;5032301;28;20070;-66
2022/11/30 00:21:59;;;;;;;22.55;12.30;;;;;;;9.90;100.00;100429.25;5012527;28;20178;-67
2022/11/30 00:24:25;;;;;;;26.50;11.93;;;;;;;9.82;100.00;100415.28;5025221;28;20022;-66
2022/11/30 00:26:51;;;;;;;27.23;13.23;;;;;;;9.81;100.00;100418.88;5032318;28;20108;-66
2022/11/30 00:29:16;;;;;;;26.92;13.32;;;;;;;9.79;100.00;100420.69;5029824;28;20026;-67
2022/11/30 00:31:41;;;;;;;21.55;11.52;;;;;;;9.83;100.00;100427.69;5029680;28;20036;-66
2022/11/30 00:34:07;;;;;;;25.45;11.90;;;;;;;9.77;100.00;100411.00;5031833;28;20048;-66
2022/11/30 00:36:32;;;;;;;27.10;12.50;;;;;;;9.74;100.00;100419.03;5030740;28;20025;-66
2022/11/30 00:38:58;;;;;;;27.48;12.48;;;;;;;9.73;100.00;100422.59;5032039;28;20078;-66
2022/11/30 00:41:23;;;;;;;26.20;11.25;;;;;;;9.76;100.00;100425.19;5032084;28;20025;-66
2022/11/30 00:43:49;;;;;;;28.77;12.38;;;;;;;9.76;100.00;100420.75;5031731;28;20033;-67
2022/11/30 00:46:14;;;;;;;29.17;12.88;;;;;;;9.69;100.00;100413.81;5031972;28;20073;-66
2022/11/30 00:48:40;;;;;;;22.70;12.27;;;;;;;9.72;100.00;100427.03;5030532;28;20032;-68
2022/11/30 00:51:06;;;;;;;25.00;11.95;;;;;;;9.70;100.00;100428.00;5029245;28;20108;-65
2022/11/30 00:53:32;;;;;;;32.20;14.18;;;;;;;9.62;100.00;100419.31;5031645;28;20659;-66
2022/11/30 00:55:57;;;;;;;28.17;12.82;;;;;;;9.71;100.00;100441.22;5031621;28;20026;-65
2022/11/30 00:58:23;;;;;;;27.23;12.88;;;;;;;9.69;100.00;100435.06;5031697;28;20025;-65
2022/11/30 01:00:48;;;;;;;27.63;13.00;;;;;;;9.64;100.00;100420.16;5031646;28;20026;-65
2022/11/30 01:03:14;;;;;;;23.73;11.73;;;;;;;9.71;100.00;100435.91;5046445;28;20044;-64
2022/11/30 01:05:42;;;;;;;26.65;12.20;;;;;;;9.62;100.00;100425.47;5031544;28;20492;-64
2022/11/30 01:08:09;;;;;;;26.48;12.63;;;;;;;9.70;100.00;100446.59;5027586;28;20025;-66
2022/11/30 01:10:36;;;;;;;24.15;11.77;;;;;;;9.69;100.00;100448.34;5011742;28;20469;-65
2022/11/30 01:13:02;;;;;;;24.58;12.73;;;;;;;9.78;100.00;100439.31;5011688;28;20032;-65
2022/11/30 01:15:27;;;;;;;32.10;13.52;;;;;;;9.83;100.00;100442.75;5011634;28;20033;-65
2022/11/30 01:17:53;;;;;;;25.75;12.68;;;;;;;9.67;100.00;100436.03;5011491;28;20038;-66
2022/11/30 01:20:18;;;;;;;29.35;14.13;;;;;;;9.70;100.00;100444.81;5017595;28;20040;-65
2022/11/30 01:22:44;;;;;;;29.40;13.80;;;;;;;9.70;100.00;100447.47;5031269;28;20028;-66
2022/11/30 01:25:09;;;;;;;29.88;13.05;;;;;;;9.73;100.00;100452.72;5031381;28;20021;-65
2022/11/30 01:27:35;;;;;;;32.65;12.48;;;;;;;9.74;100.00;100443.81;5030825;28;20052;-66
2022/11/30 01:30:00;;;;;;;26.60;12.80;;;;;;;9.75;100.00;100452.66;5020021;28;20025;-66
2022/11/30 01:32:26;;;;;;;33.15;12.75;;;;;;;9.69;100.00;100439.50;5022185;28;20507;-67
2022/11/30 01:34:52;;;;;;;29.73;12.65;;;;;;;9.79;100.00;100451.66;5023107;28;20485;-66
2022/11/30 01:37:17;;;;;;;27.05;10.32;;;;;;;9.78;100.00;100442.84;5010013;28;20026;-66
2022/11/30 01:39:43;;;;;;;25.75;10.98;;;;;;;9.66;100.00;100435.16;5010316;28;20033;-66
2022/11/30 01:42:17;;;;;;;30.95;12.85;;;;;;;9.64;100.00;100438.75;5022979;28;20044;-65
2022/11/30 01:44:56;;;;;;;28.60;13.35;;;;;;;9.73;100.00;100441.19;5027152;28;20029;-66
2022/11/30 01:47:26;;;;;;;24.67;12.05;;;;;;;9.72;100.00;100453.59;5028551;28;20657;-66
2022/11/30 01:50:00;;;;;;;27.52;11.85;;;;;;;9.72;100.00;100445.63;5028857;28;20448;-66
2022/11/30 01:52:34;;;;;;;25.83;12.00;;;;;;;9.67;100.00;100444.84;5025020;28;20037;-66
2022/11/30 01:55:25;;;;;;;37.45;12.23;;;;;;;9.67;100.00;100447.50;5029771;28;20409;-65
2022/11/30 01:57:56;;;;;;;32.00;12.80;;;;;;;9.55;100.00;100434.53;5017725;28;20046;-66
2022/11/30 02:00:42;;;;;;;31.20;10.65;;;;;;;9.63;100.00;100455.59;5031067;28;20347;-66
2022/11/30 02:03:21;;;;;;;28.90;12.15;;;;;;;9.63;100.00;100448.50;5017513;28;20073;-66
2022/11/30 02:05:48;;;;;;;28.83;12.45;;;;;;;9.51;100.00;100440.78;5025863;28;20505;-67
2022/11/30 02:08:13;;;;;;;35.40;11.68;;;;;;;9.56;100.00;100453.97;5010908;28;20027;-66
2022/11/30 02:10:42;;;;;;;31.52;11.63;;;;;;;9.51;100.00;100451.41;5018539;28;20117;-66
2022/11/30 02:13:36;;;;;;;29.10;11.68;;;;;;;9.50;100.00;100459.41;5010502;28;20033;-67
2022/11/30 02:16:23;;;;;;;24.38;11.48;;;;;;;9.46;100.00;100453.28;5024153;28;20138;-67
2022/11/30 02:18:55;;;;;;;25.52;11.30;;;;;;;9.29;100.00;100439.50;5015835;28;20033;-66
2022/11/30 02:21:38;;;;;;;34.30;12.65;;;;;;;9.40;100.00;100463.16;5024465;28;20041;-66
2022/11/30 02:24:12;;;;;;;33.90;13.07;;;;;;;9.38;100.00;100455.22;5029990;28;20079;-67
2022/11/30 02:27:20;;;;;;;26.00;12.05;;;;;;;9.43;100.00;100458.66;5023938;28;20053;-67
2022/11/30 02:29:51;;;;;;;31.98;11.68;;;;;;;9.44;100.00;100454.25;5007648;28;20061;-67
2022/11/30 02:32:20;;;;;;;33.95;12.38;;;;;;;9.44;100.00;100455.09;5029542;28;20045;-67
2022/11/30 02:34:48;;;;;;;31.63;11.32;;;;;;;9.45;100.00;100456.88;5011897;28;20037;-66
2022/11/30 02:37:16;;;;;;;25.70;10.60;;;;;;;9.49;100.00;100461.19;5013007;28;20034;-66
2022/11/30 02:39:42;;;;;;;36.65;12.48;;;;;;;9.54;100.00;100456.66;5028415;28;20036;-66
2022/11/30 02:42:12;;;;;;;36.22;11.75;;;;;;;9.53;100.00;100459.34;5031367;28;20021;-66
2022/11/30 02:44:41;;;;;;;32.80;11.60;;;;;;;9.56;100.00;100469.88;5014277;28;20018;-67
2022/11/30 02:47:17;;;;;;;34.78;12.75;;;;;;;9.57;100.00;100461.88;5031681;28;20064;-67
2022/11/30 02:49:50;;;;;;;31.83;12.73;;;;;;;9.59;100.00;100457.44;5014707;28;20556;-67
2022/11/30 02:52:18;;;;;;;36.38;12.15;;;;;;;9.63;100.00;100458.25;5014219;28;20034;-67
2022/11/30 02:54:44;;;;;;;31.02;13.13;;;;;;;9.63;100.00;100456.47;4996241;28;20030;-68
2022/11/30 02:57:10;;;;;;;37.92;12.13;;;;;;;9.60;100.00;100455.66;5014495;28;20030;-68
2022/11/30 02:59:36;;;;;;;30.27;12.25;;;;;;;9.67;100.00;100462.59;5029993;28;20221;-68
2022/11/30 03:02:01;;;;;;;31.27;12.45;;;;;;;9.72;100.00;100456.25;5031965;28;20390;-68
2022/11/30 03:04:27;;;;;;;32.65;11.07;;;;;;;9.75;100.00;100456.19;5022332;28;20145;-67
2022/11/30 03:06:52;;;;;;;31.50;11.57;;;;;;;9.73;100.00;100458.03;5014166;28;20037;-67
2022/11/30 03:09:18;;;;;;;25.92;12.07;;;;;;;9.73;100.00;100447.38;5027006;28;20465;-68
2022/11/30 03:11:43;;;;;;;34.70;12.00;;;;;;;9.68;100.00;100440.41;5048955;28;20029;-68
2022/11/30 03:14:09;;;;;;;30.67;10.45;;;;;;;9.72;100.00;100453.59;5017477;28;20025;-68
2022/11/30 03:16:36;;;;;;;35.53;14.73;;;;;;;9.77;100.00;100462.34;5013904;28;20066;-68
2022/11/30 03:19:02;;;;;;;34.92;11.70;;;;;;;9.77;100.00;100464.16;5027690;28;20021;-67
2022/11/30 03:21:27;;;;;;;33.60;13.73;;;;;;;9.75;100.00;100461.50;5025290;28;20038;-68
2022/11/30 03:23:53;;;;;;;33.00;12.05;;;;;;;9.77;100.00;100465.00;5031963;28;20029;-67
2022/11/30 03:26:18;;;;;;;30.20;12.32;;;;;;;9.79;100.00;100462.28;5032204;28;20084;-67
2022/11/30 03:28:44;;;;;;;30.83;12.55;;;;;;;9.80;100.00;100464.91;5018088;28;20030;-67
2022/11/30 03:31:12;;;;;;;31.27;11.95;;;;;;;9.81;100.00;100465.81;5025431;28;20025;-68
2022/11/30 03:33:41;;;;;;;34.95;14.05;;;;;;;9.81;100.00;100450.75;5022840;28;20034;-67
2022/11/30 03:36:09;;;;;;;26.08;11.40;;;;;;;9.75;100.00;100466.81;5013420;28;20029;-67
2022/11/30 03:38:35;;;;;;;27.05;11.45;;;;;;;9.74;100.00;100459.75;5026211;28;20029;-67
2022/11/30 03:41:08;;;;;;;32.30;12.07;;;;;;;9.78;100.00;100466.75;5032820;28;20112;-66
2022/11/30 03:43:34;;;;;;;28.48;10.80;;;;;;;9.77;100.00;100474.75;5030388;28;20062;-67
2022/11/30 03:46:00;;;;;;;29.23;12.32;;;;;;;9.71;100.00;100465.13;5047967;28;20037;-67
2022/11/30 03:48:25;;;;;;;27.40;10.77;;;;;;;9.69;100.00;100466.06;5022722;28;20033;-67
2022/11/30 03:50:51;;;;;;;27.35;11.73;;;;;;;9.68;100.00;100467.88;5030655;28;20029;-67
2022/11/30 03:53:17;;;;;;;24.73;9.85;;;;;;;9.70;100.00;100466.06;5032748;28;20083;-66
2022/11/30 03:55:43;;;;;;;25.48;10.85;;;;;;;9.63;100.00;100450.28;5032655;28;20121;-67
2022/11/30 03:58:08;;;;;;;27.95;10.15;;;;;;;9.60;100.00;100456.53;5023454;28;20537;-67
2022/11/30 04:00:34;;;;;;;30.20;11.10;;;;;;;9.60;100.00;100450.34;5032198;28;20041;-67
2022/11/30 04:03:00;;;;;;;30.63;11.00;;;;;;;9.70;100.00;100466.06;5030794;28;20123;-67
2022/11/30 04:05:25;;;;;;;32.42;11.45;;;;;;;9.65;100.00;100472.38;5032474;28;20519;-68
2022/11/30 04:07:50;;;;;;;35.65;11.85;;;;;;;9.68;100.00;100481.16;5023620;28;20045;-67
2022/11/30 04:10:16;;;;;;;44.17;14.05;;;;;;;9.65;100.00;100470.59;5012585;28;20022;-67
2022/11/30 04:12:41;;;;;;;31.75;11.48;;;;;;;9.63;100.00;100471.53;5012726;28;20453;-66
2022/11/30 04:15:07;;;;;;;41.33;11.43;;;;;;;9.63;100.00;100472.41;5027099;28;20017;-67
2022/11/30 04:17:34;;;;;;;27.13;11.75;;;;;;;9.62;100.00;100465.31;5029973;28;20064;-67
2022/11/30 04:19:59;;;;;;;32.88;11.77;;;;;;;9.59;100.00;100473.38;5019792;28;20029;-67
2022/11/30 04:22:25;;;;;;;27.55;11.35;;;;;;;9.57;100.00;100467.19;5015116;28;20021;-67
2022/11/30 04:24:50;;;;;;;33.45;13.40;;;;;;;9.47;100.00;100457.72;5032272;28;20031;-71
2022/11/30 04:27:16;;;;;;;34.30;11.02;;;;;;;9.53;100.00;100470.84;5030522;28;20025;-71
2022/11/30 04:29:41;;;;;;;28.70;11.93;;;;;;;9.54;100.00;100474.38;5028940;28;20021;-68
2022/11/30 04:32:06;;;;;;;30.05;12.25;;;;;;;9.47;100.00;100459.47;5030710;28;20025;-71
2022/11/30 04:34:32;;;;;;;27.25;10.85;;;;;;;9.54;100.00;100467.28;5030524;28;20424;-67
2022/11/30 04:36:57;;;;;;;33.45;11.77;;;;;;;9.55;100.00;100468.16;5030873;28;20037;-67
2022/11/30 04:39:23;;;;;;;29.05;11.45;;;;;;;9.55;100.00;100469.03;5030932;28;20696;-66
2022/11/30 04:41:48;;;;;;;34.42;14.00;;;;;;;9.59;100.00;100473.38;5030505;28;20037;-66
2022/11/30 04:44:13;;;;;;;39.55;14.27;;;;;;;9.55;100.00;100465.50;5018904;28;20025;-66
2022/11/30 04:46:39;;;;;;;29.05;10.85;;;;;;;9.58;100.00;100473.41;5013908;28;20049;-66
2022/11/30 04:49:04;;;;;;;31.23;13.15;;;;;;;9.57;100.00;100467.19;5018029;28;20148;-67
2022/11/30 04:51:30;;;;;;;37.13;12.07;;;;;;;9.58;100.00;100474.28;5015461;28;20034;-66
2022/11/30 04:53:55;;;;;;;36.75;13.23;;;;;;;9.58;100.00;100473.41;5012004;28;20105;-66
2022/11/30 04:56:20;;;;;;;33.85;12.70;;;;;;;9.61;100.00;100468.00;5026988;28;20026;-66
2022/11/30 04:58:46;;;;;;;31.88;13.23;;;;;;;9.63;100.00;100474.16;5029722;28;20021;-66
2022/11/30 05:01:11;;;;;;;41.92;12.73;;;;;;;9.57;100.00;100461.88;5031520;28;20469;-66
2022/11/30 05:03:37;;;;;;;37.67;13.55;;;;;;;9.56;100.00;100473.44;5029907;28;20049;-67
2022/11/30 05:06:03;;;;;;;34.92;11.45;;;;;;;9.63;100.00;100475.06;5030692;28;20037;-66
2022/11/30 05:08:28;;;;;;;37.47;11.25;;;;;;;9.55;100.00;100461.06;5021579;28;20041;-66
2022/11/30 05:10:54;;;;;;;35.45;13.10;;;;;;;9.61;100.00;100478.63;5011682;28;20033;-66
2022/11/30 05:13:21;;;;;;;29.95;12.52;;;;;;;9.62;100.00;100486.56;5023651;28;20033;-66
2022/11/30 05:15:46;;;;;;;39.00;12.57;;;;;;;9.67;100.00;100479.38;5031336;28;20105;-66
2022/11/30 05:18:12;;;;;;;38.58;13.43;;;;;;;9.65;100.00;100475.91;5024844;28;20385;-66
2022/11/30 05:20:37;;;;;;;35.85;12.45;;;;;;;9.63;100.00;100476.84;5030921;28;20048;-66
2022/11/30 05:23:02;;;;;;;55.10;13.38;;;;;;;9.64;100.00;100478.59;5026010;28;20036;-66
2022/11/30 05:25:28;;;;;;;34.30;12.38;;;;;;;9.65;100.00;100480.34;5011477;28;20025;-66
2022/11/30 05:27:53;;;;;;;36.40;13.48;;;;;;;9.66;100.00;100488.28;5028388;28;20029;-66
2022/11/30 05:30:19;;;;;;;36.30;14.57;;;;;;;9.70;100.00;100489.09;5020134;28;20025;-67
2022/11/30 05:32:44;;;;;;;38.50;12.68;;;;;;;9.70;100.00;100492.63;5044751;28;20037;-66
2022/11/30 05:35:10;;;;;;;37.40;12.55;;;;;;;9.69;100.00;100490.84;5030996;28;20075;-66
2022/11/30 05:37:35;;;;;;;35.20;12.32;;;;;;;9.71;100.00;100491.69;5029559;28;20025;-66
2022/11/30 05:40:01;;;;;;;38.85;13.02;;;;;;;9.68;100.00;100491.78;5030898;28;20033;-67
2022/11/30 05:42:27;;;;;;;39.15;13.38;;;;;;;9.65;100.00;100485.66;5029598;28;20367;-67
2022/11/30 05:44:52;;;;;;;33.15;12.77;;;;;;;9.70;100.00;100492.63;5011539;28;20113;-66
2022/11/30 05:47:18;;;;;;;39.65;12.82;;;;;;;9.70;100.00;100495.28;5026966;28;20048;-66
2022/11/30 05:49:43;;;;;;;33.67;13.32;;;;;;;9.74;100.00;100498.72;5011615;28;20030;-66
2022/11/30 05:52:09;;;;;;;28.58;12.77;;;;;;;9.75;100.00;100498.69;5011264;28;20034;-66
2022/11/30 05:54:34;;;;;;;39.63;12.95;;;;;;;9.74;100.00;100502.25;5009814;28;20474;-67
2022/11/30 05:57:00;;;;;;;36.50;13.52;;;;;;;9.75;100.00;100496.03;5024413;28;20021;-67
2022/11/30 05:59:26;;;;;;;37.75;13.63;;;;;;;9.71;100.00;100485.50;5016365;28;20482;-67
2022/11/30 06:01:51;;;;;;;35.45;12.50;;;;;;;9.73;100.00;100495.22;5030713;28;20021;-66
2022/11/30 06:04:17;;;;;;;30.73;11.85;;;;;;;9.75;100.00;100498.69;5030819;28;20042;-67
2022/11/30 06:06:42;;;;;;;36.70;13.10;;;;;;;9.68;100.00;100485.56;5022107;28;20124;-66
2022/11/30 06:09:08;;;;;;;35.80;12.43;;;;;;;9.72;100.00;100487.28;5010901;28;20033;-67
2022/11/30 06:11:33;;;;;;;37.08;12.45;;;;;;;9.79;100.00;100500.38;5011902;28;20535;-66
2022/11/30 06:13:58;;;;;;;34.88;11.27;;;;;;;9.77;100.00;100496.88;5014957;28;20038;-66
2022/11/30 06:16:24;;;;;;;24.73;10.73;;;;;;;9.76;100.00;100491.59;5015109;28;20025;-67
2022/11/30 06:18:49;;;;;;;36.33;12.23;;;;;;;9.77;100.00;100490.72;5021912;28;20026;-69
2022/11/30 06:21:16;;;;;;;40.10;14.48;;;;;;;9.75;100.00;100493.38;5018332;28;20169;-68
2022/11/30 06:23:44;;;;;;;31.58;11.23;;;;;;;9.75;100.00;100490.72;5015739;28;20107;-67
2022/11/30 06:26:11;;;;;;;28.63;11.50;;;;;;;9.78;100.00;100490.66;5014164;28;20483;-68
2022/11/30 06:28:37;;;;;;;30.13;11.05;;;;;;;9.75;100.00;100485.41;5014613;28;20433;-68
2022/11/30 06:31:05;;;;;;;27.63;11.32;;;;;;;9.83;100.00;100488.78;5014837;28;20112;-67
2022/11/30 06:33:31;;;;;;;27.73;11.20;;;;;;;9.82;100.00;100488.81;5025187;28;20036;-67
2022/11/30 06:35:56;;;;;;;32.08;12.05;;;;;;;9.88;100.00;100500.19;5034211;28;20083;-67
2022/11/30 06:38:24;;;;;;;35.15;11.73;;;;;;;9.86;100.00;100495.81;5047032;28;20025;-67
2022/11/30 06:40:51;;;;;;;35.13;12.15;;;;;;;9.86;100.00;100491.38;5028800;28;20074;-67
2022/11/30 06:43:17;;;;;;;25.85;10.60;;;;;;;9.88;100.00;100497.53;5018751;28;20346;-68
2022/11/30 06:45:45;;;;;;;27.60;12.45;;;;;;;9.89;100.00;100501.94;5022342;28;20022;-68
2022/11/30 06:48:11;;;;;;;30.47;12.30;;;;;;;9.84;100.00;100500.25;5031915;28;20026;-68
2022/11/30 06:50:37;;;;;;;39.08;11.25;;;;;;;9.85;100.00;100500.22;5023222;28;20386;-68
2022/11/30 06:53:03;;;;;;;31.70;11.20;;;;;;;9.86;100.00;100496.69;5027367;28;20036;-68
2022/11/30 06:55:31;;;;;;;27.55;11.10;;;;;;;9.86;100.00;100495.81;5033876;28;20028;-66
2022/11/30 06:58:06;;;;;;;35.55;11.80;;;;;;;9.76;100.00;100486.28;5032948;28;20033;-66
2022/11/30 07:00:32;;;;;;;28.80;11.45;;;;;;;9.75;100.00;100488.06;5033858;28;20018;-67
2022/11/30 07:02:58;;;;;;;31.95;10.80;;;;;;;9.75;100.00;100498.69;5033584;28;20539;-67
2022/11/30 07:05:23;;;;;;;31.98;11.05;;;;;;;9.78;100.00;100508.38;5017173;28;20032;-67
2022/11/30 07:07:48;;;;;;;31.88;11.43;;;;;;;9.78;100.00;100503.94;5014081;28;20133;-67
2022/11/30 07:10:14;;;;;;;29.73;12.52;;;;;;;9.78;100.00;100506.59;5030058;28;20535;-67
2022/11/30 07:12:39;;;;;;;29.63;10.95;;;;;;;9.69;100.00;100493.50;5030666;28;20117;-66
2022/11/30 07:15:05;;;;;;;24.02;11.30;;;;;;;9.69;100.00;100488.19;5033211;28;20104;-67
2022/11/30 07:17:31;;;;;;;27.48;10.60;;;;;;;9.79;100.00;100505.69;5030627;28;20032;-67
2022/11/30 07:19:56;;;;;;;32.63;11.98;;;;;;;9.78;100.00;100508.38;5016634;28;20028;-67
2022/11/30 07:22:21;;;;;;;24.98;10.63;;;;;;;9.80;100.00;100507.41;5019077;28;20037;-67
2022/11/30 07:27:31;;;;;;;31.63;11.30;;;;;;;9.85;100.00;100507.34;5020027;28;20091;-67
2022/11/30 07:29:56;;;;;;;30.88;10.60;;;;;;;9.83;100.00;100512.69;5030394;28;20029;-67
2022/11/30 07:32:22;;;;;;;26.73;11.38;;;;;;;9.78;100.00;100511.03;5029590;28;20021;-67
2022/11/30 07:34:47;;;;;;;22.38;10.15;;;;;;;9.72;100.00;100504.06;5031234;28;20038;-66
2022/11/30 07:37:13;;;;;;;26.63;11.48;;;;;;;9.75;100.00;100511.97;5011529;28;20852;-67
2022/11/30 07:39:38;;;;;;;22.08;9.48;;;;;;;9.73;100.00;100510.25;5010875;28;20105;-67
2022/11/30 07:42:03;;;;;;;21.80;9.45;;;;;;;9.77;100.00;100515.47;5010515;28;20026;-67
2022/11/30 07:44:29;;;;;;;26.00;11.25;;;;;;;9.79;100.00;100516.31;5022881;28;20033;-67
2022/11/30 07:46:54;;;;;;;28.25;11.90;;;;;;;9.79;100.00;100521.63;5010975;28;20097;-67
2022/11/30 07:49:19;;;;;;;27.15;10.77;;;;;;;9.84;100.00;100513.56;5014829;28;20037;-67
2022/11/30 07:51:45;;;;;;;23.63;11.02;;;;;;;9.68;100.00;100502.41;5014178;28;20396;-68
2022/11/30 07:54:10;;;;;;;29.52;10.13;;;;;;;9.80;100.00;100528.69;5017151;28;20032;-67
2022/11/30 07:56:36;;;;;;;22.98;10.85;;;;;;;9.74;100.00;100528.81;5031407;28;20349;-68
2022/11/30 07:59:02;;;;;;;23.90;9.70;;;;;;;9.77;100.00;100522.59;5026482;28;20026;-67
2022/11/30 08:01:30;;;;;;;25.05;9.68;;;;;;;9.79;100.00;100521.63;5026526;28;20437;-66
2022/11/30 08:03:56;;;;;;;23.88;10.02;;;;;;;9.83;100.00;100518.00;5020443;28;20214;-67
2022/11/30 08:06:30;;;;;;;23.10;9.07;;;;;;;9.85;100.00;100523.28;5012473;28;20378;-67
2022/11/30 08:08:58;;;;;;;20.75;10.27;;;;;;;9.86;100.00;100525.03;5025369;28;20025;-66
2022/11/30 08:11:27;;;;;;;22.05;10.25;;;;;;;9.87;100.00;100525.00;5013868;28;20096;-67
2022/11/30 08:13:53;;;;;;;21.48;9.68;;;;;;;9.89;100.00;100517.88;5029952;28;20033;-67
2022/11/30 08:16:21;;;;;;;21.27;9.63;;;;;;;9.92;100.00;100520.44;5021325;28;20021;-67
2022/11/30 08:18:47;;;;;;;19.92;9.82;;;;;;;9.91;100.00;100518.72;5031325;28;20025;-67
2022/11/30 08:21:15;;;;;;;19.33;9.20;;;;;;;9.97;100.00;100515.91;5021707;28;20127;-66
2022/11/30 08:23:43;;;;;;;19.13;8.43;;;;;;;9.95;100.00;100520.38;5019349;28;20029;-67
2022/11/30 08:26:21;;;;;;;20.23;8.40;;;;;;;9.99;100.00;100519.41;5017031;28;20041;-67
2022/11/30 08:28:48;;;;;;;20.58;9.73;;;;;;;10.02;100.00;100516.69;5022424;28;20030;-67
2022/11/30 08:31:35;;;;;;;18.60;8.68;;;;;;;10.11;100.00;100516.53;5025844;28;20496;-67
2022/11/30 08:34:11;;;;;;;20.30;9.00;;;;;;;10.20;100.00;100518.06;5016954;28;20042;-67
2022/11/30 08:36:38;;;;;;;22.27;9.43;;;;;;;10.30;100.00;100522.28;5026057;28;20346;-67
2022/11/30 08:39:05;;;;;;;21.83;9.52;;;;;;;10.40;100.00;100522.03;5024314;28;20033;-67
2022/11/30 08:41:33;;;;;;;22.42;10.07;;;;;;;10.47;100.00;100523.63;5028263;28;20113;-67
2022/11/30 08:43:59;;;;;;;22.20;10.27;;;;;;;10.49;100.00;100511.16;5015842;28;20108;-67
2022/11/30 08:46:25;;;;;;;21.08;10.23;;;;;;;10.57;100.00;100530.50;5019488;28;20060;-66
2022/11/30 08:48:51;;;;;;;18.80;9.32;;;;;;;10.67;100.00;100531.13;5025776;28;20061;-67
2022/11/30 08:51:18;;;;;;;21.40;9.85;;;;;;;10.72;100.00;100528.34;5030137;28;20029;-67
2022/11/30 08:53:44;;;;;;;19.13;8.85;;;;;;;10.70;100.00;100530.16;5032027;28;20030;-67
2022/11/30 08:56:13;;;;;;;17.23;9.15;;;;;;;10.63;100.00;100529.44;5025154;28;20032;-67
2022/11/30 08:58:39;;;;;;;20.10;9.45;;;;;;;10.54;100.00;100529.69;5021470;28;20025;-67
2022/11/30 09:01:16;;;;;;;16.80;8.68;;;;;;;10.53;100.00;100539.44;5022818;28;20056;-66
2022/11/30 09:03:43;;;;;;;13.55;7.43;;;;;;;10.48;100.00;100541.34;5021627;28;20509;-67
2022/11/30 09:06:13;;;;;;;16.38;8.20;;;;;;;10.52;100.00;100543.03;5024797;28;20041;-66
2022/11/30 09:08:40;;;;;;;13.85;8.35;;;;;;;10.45;100.00;100529.88;5023157;28;20029;-66
2022/11/30 09:11:16;;;;;;;14.30;8.30;;;;;;;10.49;100.00;100551.03;5018787;28;20108;-66
2022/11/30 09:13:43;;;;;;;18.73;7.25;;;;;;;10.43;100.00;100545.88;5030519;28;20485;-67
2022/11/30 09:16:10;;;;;;;16.63;8.63;;;;;;;10.47;100.00;100552.00;5016327;28;20061;-67
2022/11/30 09:18:36;;;;;;;14.65;6.93;;;;;;;10.44;100.00;100558.25;5028373;28;20036;-67
2022/11/30 09:21:04;;;;;;;14.30;7.53;;;;;;;10.48;100.00;100559.94;5021484;28;20033;-66
2022/11/30 09:23:30;;;;;;;13.65;7.78;;;;;;;10.56;100.00;100554.44;5019133;28;20033;-67
2022/11/30 09:26:00;;;;;;;13.13;7.65;;;;;;;10.69;100.00;100555.03;5019461;28;20021;-66
2022/11/30 09:28:26;;;;;;;11.18;6.55;;;;;;;10.74;100.00;100559.31;5012560;28;20030;-67
2022/11/30 09:30:52;;;;;;;13.35;7.47;;;;;;;10.51;100.00;100557.22;5016718;28;20041;-67
2022/11/30 09:33:18;;;;;;;13.77;7.82;;;;;;;10.52;100.00;100558.09;5015908;28;20041;-66
2022/11/30 09:35:52;;;;;;;18.38;9.18;;;;;;;10.54;100.00;100573.09;5023838;28;20025;-66
2022/11/30 09:38:18;;;;;;;13.93;8.00;;;;;;;10.49;100.00;100563.50;5017436;28;20033;-66
2022/11/30 09:40:45;;;;;;;14.82;7.70;;;;;;;10.55;100.00;100563.34;5023397;28;20473;-66
2022/11/30 09:43:44;;;;;;;11.63;7.85;;;;;;;10.56;100.00;100571.28;5026833;28;20048;-67
2022/11/30 09:46:10;;;;;;;12.32;7.63;;;;;;;10.51;100.00;100567.84;5018402;28;20049;-67
2022/11/30 09:48:53;;;;;;;14.63;8.25;;;;;;;10.50;100.00;100565.22;5023697;28;20056;-66
2022/11/30 09:51:25;;;;;;;13.48;7.95;;;;;;;10.56;100.00;100560.63;5027626;28;20045;-67
2022/11/30 09:53:57;;;;;;;14.35;8.57;;;;;;;10.59;100.00;100560.56;5010933;28;20057;-67
2022/11/30 09:56:36;;;;;;;14.52;8.13;;;;;;;10.60;100.00;100551.69;5019359;28;20075;-67
2022/11/30 09:59:10;;;;;;;15.20;8.23;;;;;;;10.73;100.00;100556.69;5017624;28;20037;-66
2022/11/30 10:01:36;;;;;;;15.52;8.77;;;;;;;10.79;100.00;100562.72;5011466;28;20032;-67
2022/11/30 10:04:01;;;;;;;18.02;9.82;;;;;;;10.83;100.00;100558.22;5016562;28;20533;-67
2022/11/30 10:06:48;;;;;;;15.82;8.77;;;;;;;10.88;100.00;100557.19;5030228;28;20477;-67
2022/11/30 10:09:28;;;;;;;13.98;8.65;;;;;;;10.94;100.00;100564.16;5017499;28;20069;-67
2022/11/30 10:12:41;;;;;;;19.30;10.05;;;;;;;11.13;100.00;100557.44;5021576;28;20531;-66
2022/11/30 10:15:20;;;;;;;16.95;9.20;;;;;;;11.02;100.00;100565.69;5003909;28;20118;-67
2022/11/30 10:18:16;;;;;;;16.98;9.27;;;;;;;10.91;100.00;100557.13;5014293;28;20026;-66
2022/11/30 10:21:01;;;;;;;15.32;9.55;;;;;;;10.98;100.00;100557.81;5027010;28;20641;-67
2022/11/30 10:24:24;;;;;;;16.90;9.38;;;;;;;11.03;100.00;100550.59;5021750;28;20039;-68
2022/11/30 10:26:54;;;;;;;15.00;9.32;;;;;;;10.91;100.00;100546.47;4981888;28;20542;-66
2022/11/30 10:29:36;;;;;;;17.45;10.40;;;;;;;10.86;100.00;100542.16;4967962;28;20058;-67
2022/11/30 10:32:12;;;;;;;18.38;9.20;;;;;;;10.81;100.00;100544.09;5003077;28;20048;-67
2022/11/30 10:34:41;;;;;;;17.63;10.07;;;;;;;10.80;100.00;100550.31;5017847;28;20103;-67
2022/11/30 10:37:18;;;;;;;16.55;9.38;;;;;;;10.80;100.00;100542.31;5018428;28;20038;-67
2022/11/30 10:40:01;;;;;;;20.55;11.27;;;;;;;10.77;100.00;100542.41;5017593;28;20524;-67
2022/11/30 10:42:49;;;;;;;15.63;10.02;;;;;;;10.73;100.00;100546.03;5021593;28;20029;-67
2022/11/30 10:45:23;;;;;;;17.77;10.93;;;;;;;10.80;100.00;100542.31;5012593;28;20132;-67
2022/11/30 10:48:06;;;;;;;15.95;9.57;;;;;;;10.88;100.00;100540.34;5019199;28;20026;-67
2022/11/30 10:50:32;;;;;;;14.33;9.07;;;;;;;10.87;100.00;100531.50;5014860;28;20425;-67
2022/11/30 10:52:59;;;;;;;15.07;8.30;;;;;;;10.89;100.00;100531.47;5015114;28;20326;-67
2022/11/30 10:55:28;;;;;;;19.17;9.00;;;;;;;10.90;100.00;100526.09;5018054;28;20041;-67
2022/11/30 10:58:14;;;;;;;14.82;8.98;;;;;;;10.95;100.00;100532.19;5020564;28;20400;-67
2022/11/30 11:00:49;;;;;;;13.70;8.48;;;;;;;11.02;100.00;100528.41;5024184;28;20030;-67
2022/11/30 11:03:22;;;;;;;15.05;9.57;;;;;;;10.96;100.00;100522.38;5017275;28;20056;-67
2022/11/30 11:06:06;;;;;;;20.27;9.88;;;;;;;10.99;100.00;100517.88;5016791;28;20033;-68
2022/11/30 11:08:32;;;;;;;;;;;;;;;11.01;100.00;100520.47;5029059;28;20474;-68
2022/11/30 11:10:57;;;;;;;17.08;9.43;;;;;;;11.07;100.00;100526.50;5017372;28;19964;-67
2022/11/30 11:13:41;;;;;;;13.57;7.40;;;;;;;11.08;100.00;100517.63;5024012;28;20029;-67
2022/11/30 11:16:10;;;;;;;17.00;8.02;;;;;;;11.07;100.00;100505.22;5017989;28;20037;-67
2022/11/30 11:18:50;;;;;;;14.85;8.13;;;;;;;11.19;100.00;100518.22;5023889;28;20583;-68